sensor_id;sensor_type;location;lat;lon;timestamp;pressure;altitude;pressure_sealevel;temperature;humidity
30856;BME280;17570;0.000;0.000;2023-12-20T00:01:25;97240.58;;;12.71;36.98
30856;BME280;17570;0.000;0.000;2023-12-20T00:03:53;97231.80;;;12.72;36.10
30856;BME280;17570;0.000;0.000;2023-12-20T00:06:20;97228.86;;;12.86;34.83
30856;BME280;17570;0.000;0.000;2023-12-20T00:08:48;97230.69;;;12.95;34.60
30856;BME280;17570;0.000;0.000;2023-12-20T00:11:15;97223.87;;;13.04;34.56
30856;BME280;17570;0.000;0.000;2023-12-20T00:13:43;97231.05;;;13.12;34.23
30856;BME280;17570;0.000;0.000;2023-12-20T00:16:10;97228.30;;;13.13;34.18
30856;BME280;17570;0.000;0.000;2023-12-20T00:18:37;97223.10;;;12.83;36.76
30856;BME280;17570;0.000;0.000;2023-12-20T00:21:05;97218.09;;;12.70;36.38
30856;BME280;17570;0.000;0.000;2023-12-20T00:23:32;97215.83;;;12.86;34.90
30856;BME280;17570;0.000;0.000;2023-12-20T00:26:00;97219.33;;;12.96;34.70
30856;BME280;17570;0.000;0.000;2023-12-20T00:28:28;97213.73;;;13.01;34.34
30856;BME280;17570;0.000;0.000;2023-12-20T00:30:55;97209.77;;;13.07;34.28
30856;BME280;17570;0.000;0.000;2023-12-20T00:33:22;97209.63;;;13.08;34.11
30856;BME280;17570;0.000;0.000;2023-12-20T00:35:50;97201.95;;;13.07;34.17
30856;BME280;17570;0.000;0.000;2023-12-20T00:38:17;97203.34;;;13.11;34.08
30856;BME280;17570;0.000;0.000;2023-12-20T00:40:45;97204.02;;;13.13;34.08
30856;BME280;17570;0.000;0.000;2023-12-20T00:43:12;97195.56;;;12.90;37.42
30856;BME280;17570;0.000;0.000;2023-12-20T00:45:40;97197.07;;;12.62;36.84
30856;BME280;17570;0.000;0.000;2023-12-20T00:48:07;97193.44;;;12.74;35.55
30856;BME280;17570;0.000;0.000;2023-12-20T00:50:35;97191.45;;;12.87;35.10
30856;BME280;17570;0.000;0.000;2023-12-20T00:53:02;97189.56;;;12.99;34.39
30856;BME280;17570;0.000;0.000;2023-12-20T00:55:30;97184.39;;;13.09;34.42
30856;BME280;17570;0.000;0.000;2023-12-20T00:57:57;97186.73;;;13.12;34.07
30856;BME280;17570;0.000;0.000;2023-12-20T01:00:25;97174.39;;;13.14;34.12
30856;BME280;17570;0.000;0.000;2023-12-20T01:02:53;97174.95;;;13.17;34.09
30856;BME280;17570;0.000;0.000;2023-12-20T01:05:21;97170.33;;;12.90;37.02
30856;BME280;17570;0.000;0.000;2023-12-20T01:07:50;97168.61;;;12.70;36.42
30856;BME280;17570;0.000;0.000;2023-12-20T01:10:18;97161.52;;;12.82;35.27
30856;BME280;17570;0.000;0.000;2023-12-20T01:12:45;97159.66;;;12.93;34.90
30856;BME280;17570;0.000;0.000;2023-12-20T01:15:13;97155.02;;;12.97;34.42
30856;BME280;17570;0.000;0.000;2023-12-20T01:17:40;97157.22;;;13.01;34.10
30856;BME280;17570;0.000;0.000;2023-12-20T01:20:08;97147.34;;;13.05;34.04
30856;BME280;17570;0.000;0.000;2023-12-20T01:22:35;97149.55;;;13.10;33.96
30856;BME280;17570;0.000;0.000;2023-12-20T01:25:03;97143.11;;;13.14;33.95
30856;BME280;17570;0.000;0.000;2023-12-20T01:27:30;97143.00;;;13.15;33.92
30856;BME280;17570;0.000;0.000;2023-12-20T01:29:58;97141.33;;;13.14;33.82
30856;BME280;17570;0.000;0.000;2023-12-20T01:32:25;97136.06;;;12.95;36.53
30856;BME280;17570;0.000;0.000;2023-12-20T01:34:53;97133.79;;;12.71;36.74
30856;BME280;17570;0.000;0.000;2023-12-20T01:37:20;97135.04;;;12.76;34.93
30856;BME280;17570;0.000;0.000;2023-12-20T01:39:50;97127.26;;;12.86;34.37
30856;BME280;17570;0.000;0.000;2023-12-20T01:42:18;97121.26;;;12.95;34.07
30856;BME280;17570;0.000;0.000;2023-12-20T01:44:45;97115.25;;;13.05;33.94
30856;BME280;17570;0.000;0.000;2023-12-20T01:47:14;97109.78;;;13.08;33.83
30856;BME280;17570;0.000;0.000;2023-12-20T01:49:41;97107.55;;;12.93;35.49
30856;BME280;17570;0.000;0.000;2023-12-20T01:52:09;97096.08;;;12.65;36.60
30856;BME280;17570;0.000;0.000;2023-12-20T01:54:37;97099.25;;;12.69;36.69
30856;BME280;17570;0.000;0.000;2023-12-20T01:57:05;97084.34;;;12.81;34.64
30856;BME280;17570;0.000;0.000;2023-12-20T01:59:32;97081.75;;;12.90;34.22
30856;BME280;17570;0.000;0.000;2023-12-20T02:02:01;97077.53;;;12.99;33.93
30856;BME280;17570;0.000;0.000;2023-12-20T02:04:30;97066.70;;;13.03;33.90
30856;BME280;17570;0.000;0.000;2023-12-20T02:06:57;97068.09;;;13.08;33.96
30856;BME280;17570;0.000;0.000;2023-12-20T02:09:26;97063.55;;;13.10;33.61
30856;BME280;17570;0.000;0.000;2023-12-20T02:11:54;97064.25;;;13.12;33.56
30856;BME280;17570;0.000;0.000;2023-12-20T02:14:21;97061.36;;;13.15;33.58
30856;BME280;17570;0.000;0.000;2023-12-20T02:16:49;97066.95;;;12.91;36.51
30856;BME280;17570;0.000;0.000;2023-12-20T02:19:16;97049.89;;;12.67;36.70
30856;BME280;17570;0.000;0.000;2023-12-20T02:21:45;97054.05;;;12.80;34.92
30856;BME280;17570;0.000;0.000;2023-12-20T02:24:12;97042.56;;;12.92;34.37
30856;BME280;17570;0.000;0.000;2023-12-20T02:26:40;97044.77;;;12.96;34.00
30856;BME280;17570;0.000;0.000;2023-12-20T02:29:07;97045.45;;;13.08;33.79
30856;BME280;17570;0.000;0.000;2023-12-20T02:31:35;97043.91;;;12.86;35.99
30856;BME280;17570;0.000;0.000;2023-12-20T02:34:03;97045.79;;;12.65;37.03
30856;BME280;17570;0.000;0.000;2023-12-20T02:36:30;97034.83;;;12.71;34.80
30856;BME280;17570;0.000;0.000;2023-12-20T02:38:58;97026.63;;;12.85;33.96
30856;BME280;17570;0.000;0.000;2023-12-20T02:41:25;97031.86;;;12.95;33.78
30856;BME280;17570;0.000;0.000;2023-12-20T02:43:53;97022.81;;;12.99;33.69
30856;BME280;17570;0.000;0.000;2023-12-20T02:46:20;97022.14;;;13.07;33.64
30856;BME280;17570;0.000;0.000;2023-12-20T02:48:48;97022.82;;;13.09;33.51
30856;BME280;17570;0.000;0.000;2023-12-20T02:51:15;97013.92;;;13.11;33.32
30856;BME280;17570;0.000;0.000;2023-12-20T02:53:43;97008.70;;;13.11;33.50
30856;BME280;17570;0.000;0.000;2023-12-20T02:56:10;97001.97;;;13.09;36.47
30856;BME280;17570;0.000;0.000;2023-12-20T02:58:37;97007.03;;;12.91;36.90
30856;BME280;17570;0.000;0.000;2023-12-20T03:01:05;97007.30;;;12.78;37.22
30856;BME280;17570;0.000;0.000;2023-12-20T03:03:32;97000.55;;;12.66;38.02
30856;BME280;17570;0.000;0.000;2023-12-20T03:06:00;97009.42;;;12.54;37.64
30856;BME280;17570;0.000;0.000;2023-12-20T03:08:27;97003.14;;;12.56;37.27
30856;BME280;17570;0.000;0.000;2023-12-20T03:10:55;97000.83;;;12.72;36.10
30856;BME280;17570;0.000;0.000;2023-12-20T03:13:22;96998.95;;;12.84;34.97
30856;BME280;17570;0.000;0.000;2023-12-20T03:15:50;96998.28;;;12.92;34.65
30856;BME280;17570;0.000;0.000;2023-12-20T03:18:17;96997.16;;;12.94;34.73
30856;BME280;17570;0.000;0.000;2023-12-20T03:20:45;96999.52;;;12.97;34.72
30856;BME280;17570;0.000;0.000;2023-12-20T03:23:14;96985.66;;;12.97;34.41
30856;BME280;17570;0.000;0.000;2023-12-20T03:25:41;96984.55;;;12.99;34.31
30856;BME280;17570;0.000;0.000;2023-12-20T03:28:09;96987.05;;;13.01;34.17
30856;BME280;17570;0.000;0.000;2023-12-20T03:30:36;96986.48;;;13.07;34.07
30856;BME280;17570;0.000;0.000;2023-12-20T03:33:04;96974.54;;;13.05;34.10
30856;BME280;17570;0.000;0.000;2023-12-20T03:35:31;96978.81;;;13.06;34.63
30856;BME280;17570;0.000;0.000;2023-12-20T03:37:59;96972.08;;;13.03;34.04
30856;BME280;17570;0.000;0.000;2023-12-20T03:40:26;96972.23;;;13.01;34.39
30856;BME280;17570;0.000;0.000;2023-12-20T03:42:54;96969.88;;;12.98;34.13
30856;BME280;17570;0.000;0.000;2023-12-20T03:45:21;96957.53;;;13.00;34.16
30856;BME280;17570;0.000;0.000;2023-12-20T03:47:49;96960.84;;;13.02;33.87
30856;BME280;17570;0.000;0.000;2023-12-20T03:50:18;96956.45;;;13.03;34.15
30856;BME280;17570;0.000;0.000;2023-12-20T03:52:45;96953.02;;;13.02;34.11
30856;BME280;17570;0.000;0.000;2023-12-20T03:55:13;96947.40;;;13.07;33.80
30856;BME280;17570;0.000;0.000;2023-12-20T03:57:40;96942.45;;;13.04;34.16
30856;BME280;17570;0.000;0.000;2023-12-20T04:00:08;96941.37;;;13.07;33.82
30856;BME280;17570;0.000;0.000;2023-12-20T04:02:38;96928.87;;;13.00;33.80
30856;BME280;17570;0.000;0.000;2023-12-20T04:05:06;96939.44;;;12.99;33.79
30856;BME280;17570;0.000;0.000;2023-12-20T04:07:39;96941.63;;;13.03;33.72
30856;BME280;17570;0.000;0.000;2023-12-20T04:10:03;96932.73;;;13.06;33.72
30856;BME280;17570;0.000;0.000;2023-12-20T04:12:32;96936.16;;;13.07;34.07
30856;BME280;17570;0.000;0.000;2023-12-20T04:15:00;96929.42;;;13.04;33.85
30856;BME280;17570;0.000;0.000;2023-12-20T04:17:27;96934.78;;;13.02;33.75
30856;BME280;17570;0.000;0.000;2023-12-20T04:19:54;96932.84;;;13.05;33.77
30856;BME280;17570;0.000;0.000;2023-12-20T04:22:22;96923.80;;;13.09;33.38
30856;BME280;17570;0.000;0.000;2023-12-20T04:24:49;96927.64;;;13.05;34.50
30856;BME280;17570;0.000;0.000;2023-12-20T04:27:17;96921.34;;;13.07;33.41
30856;BME280;17570;0.000;0.000;2023-12-20T04:29:44;96923.95;;;13.07;34.16
30856;BME280;17570;0.000;0.000;2023-12-20T04:32:12;96920.64;;;13.05;33.49
30856;BME280;17570;0.000;0.000;2023-12-20T04:34:39;96917.22;;;13.05;33.42
30856;BME280;17570;0.000;0.000;2023-12-20T04:37:07;96905.70;;;13.07;33.32
30856;BME280;17570;0.000;0.000;2023-12-20T04:39:34;96909.55;;;13.03;33.76
30856;BME280;17570;0.000;0.000;2023-12-20T04:42:02;96908.31;;;13.07;33.80
30856;BME280;17570;0.000;0.000;2023-12-20T04:44:29;96905.56;;;13.09;33.70
30856;BME280;17570;0.000;0.000;2023-12-20T04:46:57;96903.92;;;13.08;33.52
30856;BME280;17570;0.000;0.000;2023-12-20T04:49:24;96906.80;;;13.05;33.66
30856;BME280;17570;0.000;0.000;2023-12-20T04:51:52;96910.36;;;13.03;33.45
30856;BME280;17570;0.000;0.000;2023-12-20T04:54:19;96908.46;;;13.06;33.71
30856;BME280;17570;0.000;0.000;2023-12-20T04:56:46;96906.94;;;13.03;33.46
30856;BME280;17570;0.000;0.000;2023-12-20T04:59:14;96893.09;;;13.02;33.54
30856;BME280;17570;0.000;0.000;2023-12-20T05:01:41;96902.80;;;13.10;35.34
30856;BME280;17570;0.000;0.000;2023-12-20T05:04:09;96894.33;;;12.98;37.78
30856;BME280;17570;0.000;0.000;2023-12-20T05:06:36;96881.73;;;12.84;38.19
30856;BME280;17570;0.000;0.000;2023-12-20T05:09:04;96894.05;;;12.72;38.62
30856;BME280;17570;0.000;0.000;2023-12-20T05:11:31;96879.66;;;12.59;38.00
30856;BME280;17570;0.000;0.000;2023-12-20T05:13:59;96888.44;;;12.58;38.22
30856;BME280;17570;0.000;0.000;2023-12-20T05:16:26;96880.91;;;12.74;37.06
30856;BME280;17570;0.000;0.000;2023-12-20T05:18:54;96880.77;;;12.85;35.91
30856;BME280;17570;0.000;0.000;2023-12-20T05:21:22;96868.14;;;12.90;36.01
30856;BME280;17570;0.000;0.000;2023-12-20T05:23:49;96870.48;;;12.93;35.62
30856;BME280;17570;0.000;0.000;2023-12-20T05:26:17;96872.27;;;12.93;35.73
30856;BME280;17570;0.000;0.000;2023-12-20T05:28:44;96863.63;;;12.92;34.99
30856;BME280;17570;0.000;0.000;2023-12-20T05:31:12;96856.75;;;12.91;34.39
30856;BME280;17570;0.000;0.000;2023-12-20T05:33:39;96865.00;;;12.96;34.87
30856;BME280;17570;0.000;0.000;2023-12-20T05:36:07;96858.94;;;12.96;34.86
30856;BME280;17570;0.000;0.000;2023-12-20T05:38:36;96857.70;;;13.00;34.38
30856;BME280;17570;0.000;0.000;2023-12-20T05:41:04;96851.13;;;12.96;34.36
30856;BME280;17570;0.000;0.000;2023-12-20T05:43:31;96849.22;;;12.98;34.67
30856;BME280;17570;0.000;0.000;2023-12-20T05:45:59;96845.65;;;12.99;34.42
30856;BME280;17570;0.000;0.000;2023-12-20T05:48:27;96846.20;;;13.02;34.61
30856;BME280;17570;0.000;0.000;2023-12-20T05:50:54;96847.83;;;13.03;34.22
30856;BME280;17570;0.000;0.000;2023-12-20T05:53:21;96840.28;;;13.00;34.35
30856;BME280;17570;0.000;0.000;2023-12-20T05:55:49;96844.56;;;13.01;34.96
30856;BME280;17570;0.000;0.000;2023-12-20T05:58:16;96839.34;;;13.01;34.54
30856;BME280;17570;0.000;0.000;2023-12-20T06:00:44;96838.51;;;13.11;34.97
30856;BME280;17570;0.000;0.000;2023-12-20T06:03:11;96834.95;;;13.02;37.00
30856;BME280;17570;0.000;0.000;2023-12-20T06:05:39;96835.52;;;12.86;37.59
30856;BME280;17570;0.000;0.000;2023-12-20T06:08:06;96837.46;;;12.74;37.66
30856;BME280;17570;0.000;0.000;2023-12-20T06:10:34;96831.84;;;12.79;38.27
30856;BME280;17570;0.000;0.000;2023-12-20T06:13:01;96824.02;;;12.79;38.47
30856;BME280;17570;0.000;0.000;2023-12-20T06:15:30;96826.34;;;12.72;38.01
30856;BME280;17570;0.000;0.000;2023-12-20T06:17:58;96816.64;;;12.65;38.02
30856;BME280;17570;0.000;0.000;2023-12-20T06:20:26;96822.37;;;12.59;38.01
30856;BME280;17570;0.000;0.000;2023-12-20T06:22:53;96819.10;;;12.57;37.49
30856;BME280;17570;0.000;0.000;2023-12-20T06:25:21;96821.70;;;12.66;37.11
30856;BME280;17570;0.000;0.000;2023-12-20T06:27:48;96823.32;;;12.77;36.65
30856;BME280;17570;0.000;0.000;2023-12-20T06:30:16;96823.19;;;12.88;35.44
30856;BME280;17570;0.000;0.000;2023-12-20T06:32:43;96817.95;;;12.98;35.16
30856;BME280;17570;0.000;0.000;2023-12-20T06:35:13;96812.48;;;13.01;34.97
30856;BME280;17570;0.000;0.000;2023-12-20T06:37:40;96809.47;;;12.86;37.01
30856;BME280;17570;0.000;0.000;2023-12-20T06:40:09;96809.23;;;12.70;37.37
30856;BME280;17570;0.000;0.000;2023-12-20T06:42:37;96810.62;;;12.55;37.49
30856;BME280;17570;0.000;0.000;2023-12-20T06:45:04;96812.10;;;12.67;36.91
30856;BME280;17570;0.000;0.000;2023-12-20T06:47:32;96814.97;;;12.83;35.51
30856;BME280;17570;0.000;0.000;2023-12-20T06:49:59;96809.33;;;12.97;34.89
30856;BME280;17570;0.000;0.000;2023-12-20T06:52:27;96816.02;;;13.00;36.59
30856;BME280;17570;0.000;0.000;2023-12-20T06:54:54;96815.39;;;12.79;37.64
30856;BME280;17570;0.000;0.000;2023-12-20T06:57:22;96812.40;;;12.64;37.25
30856;BME280;17570;0.000;0.000;2023-12-20T06:59:49;96810.30;;;12.77;37.18
30856;BME280;17570;0.000;0.000;2023-12-20T07:02:18;96802.48;;;12.96;35.25
30856;BME280;17570;0.000;0.000;2023-12-20T07:04:46;96802.59;;;12.95;36.99
30856;BME280;17570;0.000;0.000;2023-12-20T07:07:14;96803.19;;;12.79;37.67
30856;BME280;17570;0.000;0.000;2023-12-20T07:09:41;96793.75;;;12.68;37.46
30856;BME280;17570;0.000;0.000;2023-12-20T07:12:09;96789.90;;;12.63;37.84
30856;BME280;17570;0.000;0.000;2023-12-20T07:14:36;96790.59;;;12.74;37.13
30856;BME280;17570;0.000;0.000;2023-12-20T07:17:04;96785.73;;;12.99;37.02
30856;BME280;17570;0.000;0.000;2023-12-20T07:19:33;96784.78;;;12.90;37.06
30856;BME280;17570;0.000;0.000;2023-12-20T07:22:01;96782.35;;;12.79;37.35
30856;BME280;17570;0.000;0.000;2023-12-20T07:24:28;96786.34;;;12.73;37.08
30856;BME280;17570;0.000;0.000;2023-12-20T07:26:56;96780.98;;;12.75;37.91
30856;BME280;17570;0.000;0.000;2023-12-20T07:29:23;96776.74;;;12.74;37.30
30856;BME280;17570;0.000;0.000;2023-12-20T07:31:52;96768.93;;;12.74;37.99
30856;BME280;17570;0.000;0.000;2023-12-20T07:34:20;96772.20;;;12.76;37.75
30856;BME280;17570;0.000;0.000;2023-12-20T07:36:47;96763.57;;;12.75;37.73
30856;BME280;17570;0.000;0.000;2023-12-20T07:39:15;96770.15;;;12.80;37.78
30856;BME280;17570;0.000;0.000;2023-12-20T07:41:43;96763.55;;;12.85;37.57
30856;BME280;17570;0.000;0.000;2023-12-20T07:44:10;96765.58;;;12.91;37.64
30856;BME280;17570;0.000;0.000;2023-12-20T07:46:37;96756.67;;;12.94;37.24
30856;BME280;17570;0.000;0.000;2023-12-20T07:49:05;96759.95;;;12.96;37.41
30856;BME280;17570;0.000;0.000;2023-12-20T07:51:32;96752.80;;;13.08;38.44
30856;BME280;17570;0.000;0.000;2023-12-20T07:54:00;96751.92;;;13.26;40.04
30856;BME280;17570;0.000;0.000;2023-12-20T07:56:27;96749.97;;;13.38;39.69
30856;BME280;17570;0.000;0.000;2023-12-20T07:58:55;96747.20;;;13.40;39.55
30856;BME280;17570;0.000;0.000;2023-12-20T08:01:22;96750.62;;;13.40;39.47
30856;BME280;17570;0.000;0.000;2023-12-20T08:03:50;96745.95;;;13.44;39.47
30856;BME280;17570;0.000;0.000;2023-12-20T08:06:18;96752.64;;;13.46;39.13
30856;BME280;17570;0.000;0.000;2023-12-20T08:08:46;96743.85;;;13.47;39.16
30856;BME280;17570;0.000;0.000;2023-12-20T08:11:13;96742.75;;;13.50;39.08
30856;BME280;17570;0.000;0.000;2023-12-20T08:13:41;96745.90;;;13.53;39.14
30856;BME280;17570;0.000;0.000;2023-12-20T08:16:08;96744.77;;;13.56;39.01
30856;BME280;17570;0.000;0.000;2023-12-20T08:18:36;96744.77;;;13.56;38.96
30856;BME280;17570;0.000;0.000;2023-12-20T08:21:03;96724.45;;;13.60;39.04
30856;BME280;17570;0.000;0.000;2023-12-20T08:23:33;96726.08;;;13.61;38.92
30856;BME280;17570;0.000;0.000;2023-12-20T08:26:08;96718.63;;;13.66;38.92
30856;BME280;17570;0.000;0.000;2023-12-20T08:28:32;96719.98;;;13.70;38.89
30856;BME280;17570;0.000;0.000;2023-12-20T08:31:00;96714.11;;;13.68;38.99
30856;BME280;17570;0.000;0.000;2023-12-20T08:33:27;96713.51;;;13.74;38.95
30856;BME280;17570;0.000;0.000;2023-12-20T08:35:55;96710.30;;;13.80;38.82
30856;BME280;17570;0.000;0.000;2023-12-20T08:38:22;96695.70;;;13.87;38.78
30856;BME280;17570;0.000;0.000;2023-12-20T08:40:50;96691.55;;;13.94;38.93
30856;BME280;17570;0.000;0.000;2023-12-20T08:43:18;96687.80;;;13.97;38.95
30856;BME280;17570;0.000;0.000;2023-12-20T08:45:45;96687.19;;;14.03;38.96
30856;BME280;17570;0.000;0.000;2023-12-20T08:48:13;96685.63;;;14.10;38.85
30856;BME280;17570;0.000;0.000;2023-12-20T08:50:40;96675.39;;;14.17;38.82
30856;BME280;17570;0.000;0.000;2023-12-20T08:53:08;96669.23;;;14.18;38.51
30856;BME280;17570;0.000;0.000;2023-12-20T08:55:35;96662.05;;;14.20;38.70
30856;BME280;17570;0.000;0.000;2023-12-20T08:58:02;96661.44;;;14.26;38.42
30856;BME280;17570;0.000;0.000;2023-12-20T09:00:32;96650.70;;;14.29;38.44
30856;BME280;17570;0.000;0.000;2023-12-20T09:02:59;96641.58;;;14.51;40.13
30856;BME280;17570;0.000;0.000;2023-12-20T09:05:27;96640.32;;;14.63;40.87
30856;BME280;17570;0.000;0.000;2023-12-20T09:07:54;96629.27;;;14.69;40.71
30856;BME280;17570;0.000;0.000;2023-12-20T09:10:22;96630.91;;;14.70;40.40
30856;BME280;17570;0.000;0.000;2023-12-20T09:12:50;96627.82;;;14.75;39.72
30856;BME280;17570;0.000;0.000;2023-12-20T09:15:18;96608.55;;;14.76;39.68
30856;BME280;17570;0.000;0.000;2023-12-20T09:17:45;96604.14;;;14.76;39.59
30856;BME280;17570;0.000;0.000;2023-12-20T09:20:13;96598.28;;;14.83;39.29
30856;BME280;17570;0.000;0.000;2023-12-20T09:22:41;96584.09;;;14.85;39.49
30856;BME280;17570;0.000;0.000;2023-12-20T09:25:09;96577.89;;;14.86;39.51
30856;BME280;17570;0.000;0.000;2023-12-20T09:27:37;96579.05;;;14.92;39.23
30856;BME280;17570;0.000;0.000;2023-12-20T09:30:05;96576.46;;;15.00;39.22
30856;BME280;17570;0.000;0.000;2023-12-20T09:32:32;96567.16;;;15.05;39.16
30856;BME280;17570;0.000;0.000;2023-12-20T09:35:01;96564.41;;;15.07;39.09
30856;BME280;17570;0.000;0.000;2023-12-20T09:37:28;96562.95;;;15.13;39.16
30856;BME280;17570;0.000;0.000;2023-12-20T09:39:56;96557.41;;;15.16;39.32
30856;BME280;17570;0.000;0.000;2023-12-20T09:42:25;96555.13;;;15.21;39.17
30856;BME280;17570;0.000;0.000;2023-12-20T09:44:52;96554.47;;;15.27;39.13
30856;BME280;17570;0.000;0.000;2023-12-20T09:47:20;96542.38;;;15.42;38.46
30856;BME280;17570;0.000;0.000;2023-12-20T09:49:49;96532.75;;;15.59;37.99
30856;BME280;17570;0.000;0.000;2023-12-20T09:52:18;96528.34;;;15.76;37.76
30856;BME280;17570;0.000;0.000;2023-12-20T09:54:45;96521.98;;;15.87;37.84
30856;BME280;17570;0.000;0.000;2023-12-20T09:57:14;96521.62;;;15.98;37.78
30856;BME280;17570;0.000;0.000;2023-12-20T09:59:42;96519.80;;;16.15;37.53
30856;BME280;17570;0.000;0.000;2023-12-20T10:02:11;96511.55;;;16.34;37.13
30856;BME280;17570;0.000;0.000;2023-12-20T10:04:38;96495.42;;;16.53;36.79
30856;BME280;17570;0.000;0.000;2023-12-20T10:07:07;96489.82;;;16.65;36.80
30856;BME280;17570;0.000;0.000;2023-12-20T10:09:35;96491.74;;;16.79;36.51
30856;BME280;17570;0.000;0.000;2023-12-20T10:12:02;96484.47;;;16.89;35.86
30856;BME280;17570;0.000;0.000;2023-12-20T10:14:37;96488.49;;;17.00;35.72
30856;BME280;17570;0.000;0.000;2023-12-20T10:17:04;96485.98;;;17.06;35.41
30856;BME280;17570;0.000;0.000;2023-12-20T10:19:32;96471.91;;;17.07;35.42
30856;BME280;17570;0.000;0.000;2023-12-20T10:22:00;96461.04;;;17.11;35.39
30856;BME280;17570;0.000;0.000;2023-12-20T10:24:30;96458.42;;;17.11;35.19
30856;BME280;17570;0.000;0.000;2023-12-20T10:27:02;96465.47;;;17.10;35.22
30856;BME280;17570;0.000;0.000;2023-12-20T10:29:36;96459.75;;;17.06;35.40
30856;BME280;17570;0.000;0.000;2023-12-20T10:31:59;96450.16;;;16.99;35.23
30856;BME280;17570;0.000;0.000;2023-12-20T10:34:27;96445.10;;;16.97;35.59
30856;BME280;17570;0.000;0.000;2023-12-20T10:36:54;96448.06;;;16.94;35.00
30856;BME280;17570;0.000;0.000;2023-12-20T10:39:22;96442.16;;;16.92;34.98
30856;BME280;17570;0.000;0.000;2023-12-20T10:41:50;96442.16;;;16.92;35.46
30856;BME280;17570;0.000;0.000;2023-12-20T10:44:17;96443.34;;;16.90;35.49
30856;BME280;17570;0.000;0.000;2023-12-20T10:46:45;96439.72;;;16.91;35.41
30856;BME280;17570;0.000;0.000;2023-12-20T10:49:15;96433.04;;;16.88;35.51
30856;BME280;17570;0.000;0.000;2023-12-20T10:51:43;96432.86;;;16.90;35.34
30856;BME280;17570;0.000;0.000;2023-12-20T10:54:12;96431.86;;;16.91;35.34
30856;BME280;17570;0.000;0.000;2023-12-20T10:56:39;96425.62;;;16.92;35.34
30856;BME280;17570;0.000;0.000;2023-12-20T10:59:07;96427.27;;;16.93;35.41
30856;BME280;17570;0.000;0.000;2023-12-20T11:01:36;96418.88;;;16.97;35.29
30856;BME280;17570;0.000;0.000;2023-12-20T11:04:06;96416.55;;;17.02;35.55
30856;BME280;17570;0.000;0.000;2023-12-20T11:06:36;96415.02;;;17.08;35.43
30856;BME280;17570;0.000;0.000;2023-12-20T11:09:08;96405.16;;;17.10;35.47
30856;BME280;17570;0.000;0.000;2023-12-20T11:14:07;96407.19;;;17.23;35.25
30856;BME280;17570;0.000;0.000;2023-12-20T11:16:38;96404.51;;;17.31;35.38
30856;BME280;17570;0.000;0.000;2023-12-20T11:19:06;96403.99;;;17.50;36.31
30856;BME280;17570;0.000;0.000;2023-12-20T11:21:33;96393.08;;;17.76;35.81
30856;BME280;17570;0.000;0.000;2023-12-20T11:24:01;96392.34;;;18.12;35.88
30856;BME280;17570;0.000;0.000;2023-12-20T11:26:29;96389.30;;;18.45;35.63
30856;BME280;17570;0.000;0.000;2023-12-20T11:31:42;96370.38;;;19.14;34.97
30856;BME280;17570;0.000;0.000;2023-12-20T11:34:13;96366.70;;;19.36;34.64
30856;BME280;17570;0.000;0.000;2023-12-20T11:36:42;96365.35;;;19.75;34.36
30856;BME280;17570;0.000;0.000;2023-12-20T11:39:10;96355.41;;;20.11;34.23
30856;BME280;17570;0.000;0.000;2023-12-20T11:41:38;96364.68;;;20.49;33.87
30856;BME280;17570;0.000;0.000;2023-12-20T11:44:06;96350.56;;;20.89;33.58
30856;BME280;17570;0.000;0.000;2023-12-20T11:46:34;96338.16;;;21.30;33.34
30856;BME280;17570;0.000;0.000;2023-12-20T12:59:10;96268.58;;;14.87;40.89
30856;BME280;17570;0.000;0.000;2023-12-20T13:01:38;96264.20;;;16.14;38.12
30856;BME280;17570;0.000;0.000;2023-12-20T13:04:05;96262.38;;;17.57;35.04
30856;BME280;17570;0.000;0.000;2023-12-20T13:06:34;96259.84;;;18.36;34.28
30856;BME280;17570;0.000;0.000;2023-12-20T13:09:02;96256.64;;;18.62;33.27
30856;BME280;17570;0.000;0.000;2023-12-20T13:11:31;96264.60;;;18.69;33.21
30856;BME280;17570;0.000;0.000;2023-12-20T13:13:58;96266.59;;;18.67;32.90
30856;BME280;17570;0.000;0.000;2023-12-20T13:16:26;96266.59;;;18.67;32.81
30856;BME280;17570;0.000;0.000;2023-12-20T13:18:53;96262.95;;;18.68;33.03
30856;BME280;17570;0.000;0.000;2023-12-20T13:21:21;96262.34;;;18.66;32.83
30856;BME280;17570;0.000;0.000;2023-12-20T13:23:48;96260.20;;;18.54;32.93
30856;BME280;17570;0.000;0.000;2023-12-20T13:26:16;96264.77;;;18.46;33.29
30856;BME280;17570;0.000;0.000;2023-12-20T13:28:44;96263.84;;;18.32;33.46
30856;BME280;17570;0.000;0.000;2023-12-20T13:31:11;96267.86;;;18.28;33.86
30856;BME280;17570;0.000;0.000;2023-12-20T13:33:39;96260.91;;;18.20;33.81
30856;BME280;17570;0.000;0.000;2023-12-20T13:36:07;96263.53;;;18.20;33.61
30856;BME280;17570;0.000;0.000;2023-12-20T13:38:35;96255.96;;;18.10;34.23
30856;BME280;17570;0.000;0.000;2023-12-20T13:41:02;96259.31;;;18.04;34.36
30856;BME280;17570;0.000;0.000;2023-12-20T13:43:33;96253.94;;;17.91;34.39
30856;BME280;17570;0.000;0.000;2023-12-20T13:46:00;96256.73;;;17.90;34.36
30856;BME280;17570;0.000;0.000;2023-12-20T13:48:27;96244.91;;;17.79;34.12
30856;BME280;17570;0.000;0.000;2023-12-20T13:50:55;96247.59;;;17.71;34.97
30856;BME280;17570;0.000;0.000;2023-12-20T13:53:22;96243.84;;;17.73;34.53
30856;BME280;17570;0.000;0.000;2023-12-20T13:55:50;96252.69;;;17.72;35.36
30856;BME280;17570;0.000;0.000;2023-12-20T13:58:18;96246.08;;;17.62;35.17
30856;BME280;17570;0.000;0.000;2023-12-20T14:00:46;96238.49;;;17.52;35.43
30856;BME280;17570;0.000;0.000;2023-12-20T14:03:14;96238.42;;;17.45;35.25
30856;BME280;17570;0.000;0.000;2023-12-20T14:05:42;96237.16;;;17.41;35.56
30856;BME280;17570;0.000;0.000;2023-12-20T14:08:09;96240.78;;;17.40;35.30
30856;BME280;17570;0.000;0.000;2023-12-20T14:10:37;96235.81;;;17.30;35.61
30856;BME280;17570;0.000;0.000;2023-12-20T14:13:05;96242.41;;;17.26;35.52
30856;BME280;17570;0.000;0.000;2023-12-20T14:15:32;96237.80;;;17.14;35.72
30856;BME280;17570;0.000;0.000;2023-12-20T14:18:01;96237.72;;;17.07;35.95
30856;BME280;17570;0.000;0.000;2023-12-20T14:20:29;96236.80;;;17.00;36.29
30856;BME280;17570;0.000;0.000;2023-12-20T14:22:56;96238.95;;;16.96;35.97
30856;BME280;17570;0.000;0.000;2023-12-20T14:25:24;96231.36;;;17.01;35.68
30856;BME280;17570;0.000;0.000;2023-12-20T14:27:52;96234.25;;;16.92;35.86